createdAt,value
2022-08-30T00:01:14.527Z,18.20
2022-08-30T00:03:55.260Z,18.20
2022-08-30T00:06:30.447Z,18.10
2022-08-30T00:09:02.658Z,18.10
2022-08-30T00:11:34.799Z,18.10
2022-08-30T00:14:07.087Z,18.10
2022-08-30T00:16:39.197Z,18.10
2022-08-30T00:19:11.193Z,18.10
2022-08-30T00:21:43.219Z,18.00
2022-08-30T00:24:15.434Z,18.00
2022-08-30T00:26:47.432Z,18.00
2022-08-30T00:29:19.657Z,18.00
2022-08-30T00:31:51.890Z,18.00
2022-08-30T00:34:23.888Z,17.90
2022-08-30T00:36:55.905Z,17.90
2022-08-30T00:39:28.849Z,17.90
2022-08-30T00:42:00.822Z,17.80
2022-08-30T00:44:33.041Z,17.80
2022-08-30T00:47:05.550Z,17.80
2022-08-30T00:49:41.626Z,17.70
2022-08-30T00:52:18.801Z,17.70
2022-08-30T00:54:53.055Z,17.60
2022-08-30T00:57:25.193Z,17.60
2022-08-30T00:59:57.745Z,17.60
2022-08-30T01:02:31.311Z,17.50
2022-08-30T01:05:08.532Z,17.50
2022-08-30T01:07:42.944Z,17.40
2022-08-30T01:10:15.611Z,17.40
2022-08-30T01:12:48.612Z,17.40
2022-08-30T01:15:20.989Z,17.40
2022-08-30T01:17:54.207Z,17.30
2022-08-30T01:20:34.079Z,17.30
2022-08-30T01:23:16.487Z,17.30
2022-08-30T01:25:52.318Z,17.30
2022-08-30T01:28:26.568Z,17.30
2022-08-30T01:31:01.763Z,17.20
2022-08-30T01:33:37.459Z,17.20
2022-08-30T01:36:12.458Z,17.10
2022-08-30T01:38:54.720Z,17.10
2022-08-30T01:41:34.345Z,17.00
2022-08-30T01:44:10.344Z,17.00
2022-08-30T01:46:47.315Z,17.00
2022-08-30T01:49:27.588Z,16.90
2022-08-30T01:52:01.655Z,16.90
2022-08-30T01:54:38.616Z,16.90
2022-08-30T01:57:14.754Z,16.90
2022-08-30T01:59:50.438Z,16.80
2022-08-30T02:02:26.107Z,16.80
2022-08-30T02:04:59.465Z,16.80
2022-08-30T02:07:31.922Z,16.80
2022-08-30T02:10:04.413Z,16.80
2022-08-30T02:12:37.055Z,16.80
2022-08-30T02:15:10.032Z,16.80
2022-08-30T02:17:44.626Z,16.70
2022-08-30T02:20:16.666Z,16.70
2022-08-30T02:22:49.512Z,16.70
2022-08-30T02:25:21.762Z,16.70
2022-08-30T02:27:53.954Z,16.60
2022-08-30T02:30:26.514Z,16.60
2022-08-30T02:32:58.631Z,16.50
2022-08-30T02:35:31.010Z,16.50
2022-08-30T02:38:03.524Z,16.50
2022-08-30T02:40:36.133Z,16.40
2022-08-30T02:43:12.151Z,16.50
2022-08-30T02:45:44.383Z,16.40
2022-08-30T02:48:16.667Z,16.40
2022-08-30T02:50:52.043Z,16.40
2022-08-30T02:53:24.373Z,16.40
2022-08-30T02:55:59.104Z,16.30
2022-08-30T02:58:32.342Z,16.30
2022-08-30T03:01:05.848Z,16.30
2022-08-30T03:03:38.122Z,16.30
2022-08-30T03:06:11.055Z,16.30
2022-08-30T03:08:43.907Z,16.30
2022-08-30T03:11:16.074Z,16.20
2022-08-30T03:13:48.376Z,16.20
2022-08-30T03:16:22.620Z,16.20
2022-08-30T03:18:54.771Z,16.10
2022-08-30T03:21:27.204Z,16.20
2022-08-30T03:23:59.213Z,16.10
2022-08-30T03:26:31.243Z,16.20
2022-08-30T03:29:03.595Z,16.20
2022-08-30T03:31:40.668Z,16.10
2022-08-30T03:34:25.854Z,16.10
2022-08-30T03:36:58.634Z,16.10
2022-08-30T03:39:32.130Z,16.00
2022-08-30T03:42:04.693Z,16.00
2022-08-30T03:44:37.829Z,16.00
2022-08-30T03:47:10.738Z,16.00
2022-08-30T03:49:43.054Z,16.00
2022-08-30T03:52:15.116Z,15.90
2022-08-30T03:54:48.574Z,15.90
2022-08-30T03:57:24.260Z,15.90
2022-08-30T03:59:57.286Z,15.90
2022-08-30T04:02:30.330Z,15.80
2022-08-30T04:05:02.484Z,15.80
2022-08-30T04:07:35.630Z,15.80
2022-08-30T04:10:08.955Z,15.80
2022-08-30T04:12:43.229Z,15.80
2022-08-30T04:15:19.482Z,15.80
2022-08-30T04:17:51.546Z,15.80
2022-08-30T04:20:25.654Z,15.80
2022-08-30T04:22:58.591Z,15.80
2022-08-30T04:25:30.602Z,15.80
2022-08-30T04:28:03.728Z,15.80
2022-08-30T04:30:40.499Z,15.70
2022-08-30T04:33:15.624Z,15.70
2022-08-30T04:35:49.647Z,15.70
2022-08-30T04:38:22.620Z,15.70
2022-08-30T04:40:55.401Z,15.70
2022-08-30T04:43:27.581Z,15.60
2022-08-30T04:45:59.728Z,15.70
2022-08-30T04:48:38.029Z,15.70
2022-08-30T04:51:14.649Z,15.70
2022-08-30T04:53:48.045Z,15.70
2022-08-30T04:56:22.859Z,15.70
2022-08-30T04:58:55.593Z,15.70
2022-08-30T05:01:31.003Z,15.70
2022-08-30T05:04:04.271Z,15.60
2022-08-30T05:06:37.805Z,15.70
2022-08-30T05:09:09.982Z,15.70
2022-08-30T05:11:43.296Z,15.80
2022-08-30T05:14:16.732Z,15.80
2022-08-30T05:16:49.237Z,15.80
2022-08-30T05:19:21.304Z,15.90
2022-08-30T05:21:54.295Z,15.90
2022-08-30T05:24:26.780Z,15.90
2022-08-30T05:26:59.534Z,16.00
2022-08-30T05:29:32.622Z,16.00
2022-08-30T05:32:04.758Z,16.10
2022-08-30T05:34:37.066Z,16.10
2022-08-30T05:37:09.078Z,16.20
2022-08-30T05:39:50.777Z,16.30
2022-08-30T05:42:23.917Z,16.40
2022-08-30T05:44:56.356Z,16.50
2022-08-30T05:47:28.617Z,16.60
2022-08-30T05:50:00.676Z,16.60
2022-08-30T05:52:36.297Z,16.70
2022-08-30T05:55:11.246Z,16.80
2022-08-30T05:57:43.445Z,16.90
2022-08-30T06:00:18.355Z,16.90
2022-08-30T06:02:54.514Z,17.00
2022-08-30T06:05:26.568Z,17.00
2022-08-30T06:07:58.585Z,17.10
2022-08-30T06:10:30.650Z,17.20
2022-08-30T06:13:02.768Z,17.30
2022-08-30T06:15:35.023Z,17.60
2022-08-30T06:18:07.475Z,18.10
2022-08-30T06:20:44.558Z,18.60
2022-08-30T06:23:18.565Z,18.80
2022-08-30T06:25:51.214Z,19.00
2022-08-30T06:28:23.398Z,19.20
2022-08-30T06:30:57.763Z,19.30
2022-08-30T06:33:29.801Z,19.40
2022-08-30T06:36:06.613Z,19.60
2022-08-30T06:38:43.443Z,19.70
2022-08-30T06:41:19.454Z,19.80
2022-08-30T06:43:54.696Z,19.80
2022-08-30T06:46:32.566Z,19.80
2022-08-30T06:49:07.715Z,19.90
2022-08-30T06:51:40.109Z,20.20
2022-08-30T06:54:13.337Z,20.90
2022-08-30T06:56:58.277Z,21.30
2022-08-30T06:59:32.491Z,21.50
2022-08-30T07:02:06.476Z,21.60
2022-08-30T07:04:44.754Z,21.70
2022-08-30T07:07:16.741Z,22.10
2022-08-30T07:09:48.928Z,22.60
2022-08-30T07:12:21.548Z,23.40
2022-08-30T07:14:53.781Z,24.40
2022-08-30T07:17:44.168Z,25.30
2022-08-30T07:20:40.271Z,26.10
2022-08-30T07:23:13.276Z,26.90
2022-08-30T07:25:45.371Z,27.50
2022-08-30T07:28:17.802Z,28.00
2022-08-30T07:30:50.047Z,28.70
2022-08-30T07:33:22.290Z,28.70
2022-08-30T07:35:54.415Z,28.30
2022-08-30T07:38:27.508Z,27.80
2022-08-30T07:41:02.805Z,27.20
2022-08-30T07:43:37.105Z,26.60
2022-08-30T07:46:10.012Z,25.90
2022-08-30T07:48:42.457Z,25.40
2022-08-30T07:51:19.803Z,25.00
2022-08-30T07:53:55.987Z,24.60
2022-08-30T07:56:28.573Z,24.30
2022-08-30T07:59:00.648Z,24.00
2022-08-30T08:01:32.953Z,24.00
2022-08-30T08:04:05.198Z,24.30
2022-08-30T08:06:39.944Z,24.90
2022-08-30T08:09:15.017Z,25.50
2022-08-30T08:11:47.252Z,25.50
2022-08-30T08:14:21.442Z,25.70
2022-08-30T08:19:47.410Z,26.10
2022-08-30T08:22:21.305Z,26.20
2022-08-30T08:24:54.119Z,26.20
2022-08-30T08:27:26.162Z,26.20
2022-08-30T08:29:58.359Z,26.30
2022-08-30T08:32:30.424Z,26.40
2022-08-30T08:35:02.485Z,26.20
2022-08-30T08:37:34.784Z,25.90
2022-08-30T08:40:08.061Z,25.60
2022-08-30T08:43:03.952Z,25.60
2022-08-30T08:46:10.089Z,26.00
2022-08-30T08:49:03.529Z,26.50
2022-08-30T08:51:58.860Z,26.70
2022-08-30T08:54:57.917Z,26.80
2022-08-30T08:57:37.557Z,27.10
2022-08-30T09:00:12.521Z,27.20
2022-08-30T09:02:55.700Z,27.20
2022-08-30T09:05:40.684Z,27.20
2022-08-30T09:08:17.087Z,27.40
2022-08-30T09:11:04.645Z,27.50
2022-08-30T09:13:38.142Z,27.60
2022-08-30T09:16:46.946Z,27.70
2022-08-30T09:19:52.054Z,27.80
2022-08-30T09:22:37.978Z,27.80
2022-08-30T09:25:14.442Z,28.00
2022-08-30T09:28:12.615Z,28.10
2022-08-30T09:31:01.297Z,28.00
2022-08-30T09:33:38.332Z,28.00
2022-08-30T09:36:20.941Z,28.10
2022-08-30T09:39:25.192Z,28.20
2022-08-30T09:42:26.528Z,28.30
2022-08-30T09:45:12.877Z,28.40
2022-08-30T09:47:50.211Z,28.40
2022-08-30T09:50:24.313Z,28.30
2022-08-30T09:53:11.703Z,28.40
2022-08-30T09:56:39.225Z,28.40
2022-08-30T09:59:52.039Z,28.40
2022-08-30T10:02:53.181Z,28.50
2022-08-30T10:06:20.754Z,28.50
2022-08-30T10:09:03.242Z,28.50
2022-08-30T10:12:07.289Z,28.50
2022-08-30T10:15:19.686Z,28.70
2022-08-30T10:18:45.584Z,28.70
2022-08-30T10:21:43.439Z,28.80
2022-08-30T10:24:34.941Z,28.80
2022-08-30T10:27:24.864Z,28.80
2022-08-30T10:30:10.630Z,28.90
2022-08-30T10:33:02.017Z,28.90
2022-08-30T10:35:50.342Z,29.00
2022-08-30T10:38:35.336Z,29.10
2022-08-30T10:41:22.520Z,29.10
2022-08-30T10:44:11.866Z,29.20
2022-08-30T10:47:23.248Z,29.30
2022-08-30T10:50:41.228Z,29.30
2022-08-30T10:53:50.087Z,29.40
2022-08-30T10:56:29.552Z,29.40
2022-08-30T10:59:05.329Z,29.30
2022-08-30T11:01:56.195Z,29.20
2022-08-30T11:05:16.282Z,29.00
2022-08-30T11:08:08.337Z,29.10
2022-08-30T11:11:18.356Z,29.20
2022-08-30T11:14:14.568Z,29.50
2022-08-30T11:16:51.873Z,29.70
2022-08-30T11:19:36.177Z,29.80
2022-08-30T11:22:36.832Z,29.90
2022-08-30T11:25:53.543Z,30.00
2022-08-30T11:28:35.822Z,30.20
2022-08-30T11:31:38.759Z,30.30
2022-08-30T11:34:33.293Z,30.30
2022-08-30T11:37:40.959Z,30.30
2022-08-30T11:40:20.726Z,30.30
2022-08-30T11:43:34.444Z,30.30
2022-08-30T11:46:37.884Z,30.30
2022-08-30T11:49:14.475Z,30.30
2022-08-30T11:52:27.516Z,30.30
2022-08-30T11:55:21.965Z,30.30
2022-08-30T11:58:21.925Z,30.30
2022-08-30T12:01:49.903Z,30.10
2022-08-30T12:04:17.845Z,30.00
2022-08-30T12:07:10.088Z,29.90
2022-08-30T12:09:43.197Z,29.80
2022-08-30T12:12:37.757Z,29.80
2022-08-30T12:15:55.983Z,29.80
2022-08-30T12:18:46.558Z,29.80
2022-08-30T12:21:21.444Z,29.80
2022-08-30T12:24:18.779Z,29.90
2022-08-30T12:26:58.281Z,29.80
2022-08-30T12:29:52.818Z,29.80
2022-08-30T12:32:53.766Z,29.90
2022-08-30T12:35:28.298Z,29.90
2022-08-30T12:38:08.693Z,29.90
2022-08-30T12:40:52.339Z,30.00
2022-08-30T12:43:40.228Z,30.00
2022-08-30T12:46:26.034Z,30.10
2022-08-30T12:48:59.091Z,30.30
2022-08-30T12:51:38.487Z,30.40
2022-08-30T12:54:27.493Z,30.50
2022-08-30T12:57:34.902Z,30.80
2022-08-30T13:00:11.590Z,31.00
2022-08-30T13:03:25.197Z,31.30
2022-08-30T13:06:08.039Z,31.40
2022-08-30T13:08:51.926Z,31.30
2022-08-30T13:11:29.485Z,31.20
2022-08-30T13:14:32.868Z,31.20
2022-08-30T13:17:18.579Z,31.20
2022-08-30T13:20:27.129Z,31.20
2022-08-30T13:23:07.117Z,31.20
2022-08-30T13:25:40.966Z,31.20
2022-08-30T13:28:13.450Z,31.40
2022-08-30T13:30:45.543Z,31.60
2022-08-30T13:33:18.899Z,31.80
2022-08-30T13:35:53.461Z,32.00
2022-08-30T13:38:26.520Z,32.00
2022-08-30T13:40:58.838Z,32.00
2022-08-30T13:43:30.870Z,31.80
2022-08-30T13:46:25.061Z,31.60
2022-08-30T13:49:43.048Z,31.40
2022-08-30T13:52:19.792Z,31.20
2022-08-30T13:54:55.893Z,30.90
2022-08-30T14:00:23.541Z,30.70
2022-08-30T14:02:57.454Z,30.50
2022-08-30T14:06:09.891Z,30.40
2022-08-30T14:08:47.902Z,30.50
2022-08-30T14:11:22.975Z,30.50
2022-08-30T14:16:47.439Z,30.90
2022-08-30T14:19:19.836Z,31.00
2022-08-30T14:21:52.007Z,31.10
2022-08-30T14:24:24.089Z,31.20
2022-08-30T14:26:56.426Z,31.30
2022-08-30T14:29:29.986Z,31.40
2022-08-30T14:32:02.651Z,31.40
2022-08-30T14:34:34.809Z,31.30
2022-08-30T14:37:06.851Z,31.20
2022-08-30T14:39:39.282Z,31.10
2022-08-30T14:42:12.507Z,31.00
2022-08-30T14:44:56.656Z,30.90
2022-08-30T14:47:29.714Z,30.90
2022-08-30T14:50:02.224Z,30.90
2022-08-30T14:52:36.668Z,31.00
2022-08-30T14:55:10.655Z,31.10
2022-08-30T14:57:43.198Z,31.20
2022-08-30T15:00:16.024Z,31.20
2022-08-30T15:02:48.407Z,31.20
2022-08-30T15:05:21.010Z,31.20
2022-08-30T15:07:53.048Z,31.10
2022-08-30T15:10:25.232Z,30.90
2022-08-30T15:12:57.479Z,30.60
2022-08-30T15:15:29.576Z,30.40
2022-08-30T15:18:03.798Z,30.20
2022-08-30T15:20:36.411Z,30.00
2022-08-30T15:23:16.963Z,29.90
2022-08-30T15:25:49.138Z,29.90
2022-08-30T15:28:21.590Z,29.90
2022-08-30T15:30:53.756Z,30.00
2022-08-30T15:33:26.386Z,30.00
2022-08-30T15:36:02.081Z,30.00
2022-08-30T15:38:37.539Z,30.20
2022-08-30T15:41:12.421Z,30.30
2022-08-30T15:43:44.605Z,30.20
2022-08-30T15:46:32.267Z,30.00
2022-08-30T15:49:13.029Z,29.80
2022-08-30T15:51:54.123Z,29.50
2022-08-30T15:54:32.075Z,29.40
2022-08-30T15:57:05.804Z,29.20
2022-08-30T15:59:38.040Z,29.10
2022-08-30T16:02:10.853Z,29.10
2022-08-30T16:04:43.136Z,29.10
2022-08-30T16:07:15.624Z,29.10
2022-08-30T16:09:48.399Z,29.10
2022-08-30T16:12:23.666Z,29.10
2022-08-30T16:14:56.251Z,29.10
2022-08-30T16:17:28.410Z,29.10
2022-08-30T16:20:03.043Z,29.00
2022-08-30T16:22:36.116Z,28.80
2022-08-30T16:25:08.523Z,28.70
2022-08-30T16:27:43.061Z,28.70
2022-08-30T16:30:16.087Z,28.70
2022-08-30T16:32:49.387Z,28.70
2022-08-30T16:35:21.685Z,28.60
2022-08-30T16:37:54.190Z,28.60
2022-08-30T16:40:27.653Z,28.60
2022-08-30T16:42:59.873Z,28.50
2022-08-30T16:45:34.474Z,28.40
2022-08-30T16:48:10.090Z,28.30
2022-08-30T16:50:47.280Z,28.20
2022-08-30T16:53:19.436Z,28.00
2022-08-30T16:55:52.293Z,27.90
2022-08-30T16:58:25.407Z,27.70
2022-08-30T17:00:58.414Z,27.60
2022-08-30T17:03:31.427Z,27.50
2022-08-30T17:06:04.000Z,27.40
2022-08-30T17:08:36.675Z,27.30
2022-08-30T17:11:11.318Z,27.20
2022-08-30T17:13:44.460Z,27.20
2022-08-30T17:16:16.748Z,27.10
2022-08-30T17:18:59.510Z,27.00
2022-08-30T17:21:32.424Z,26.90
2022-08-30T17:24:05.449Z,26.90
2022-08-30T17:26:39.739Z,26.80
2022-08-30T17:29:12.896Z,26.70
2022-08-30T17:31:50.909Z,26.70
2022-08-30T17:34:24.584Z,26.60
2022-08-30T17:37:00.143Z,26.50
2022-08-30T17:39:32.456Z,26.50
2022-08-30T17:42:05.281Z,26.40
2022-08-30T17:44:42.357Z,26.30
2022-08-30T17:47:14.610Z,26.20
2022-08-30T17:49:47.764Z,26.20
2022-08-30T17:52:20.671Z,26.10
2022-08-30T17:54:53.650Z,26.10
2022-08-30T17:57:25.923Z,26.00
2022-08-30T17:59:58.604Z,25.90
2022-08-30T18:02:31.023Z,25.80
2022-08-30T18:05:04.861Z,25.70
2022-08-30T18:07:37.742Z,25.60
2022-08-30T18:10:10.980Z,25.60
2022-08-30T18:12:46.030Z,25.50
2022-08-30T18:15:37.961Z,25.40
2022-08-30T18:18:16.084Z,25.40
2022-08-30T18:20:49.630Z,25.30
2022-08-30T18:23:24.076Z,25.30
2022-08-30T18:25:59.757Z,25.20
2022-08-30T18:28:35.616Z,25.10
2022-08-30T18:31:07.901Z,25.00
2022-08-30T18:33:41.697Z,25.00
2022-08-30T18:36:16.185Z,24.90
2022-08-30T18:38:48.603Z,24.80
2022-08-30T18:41:21.094Z,24.70
2022-08-30T18:44:10.978Z,24.70
2022-08-30T18:46:56.829Z,24.60
2022-08-30T18:49:32.852Z,24.50
2022-08-30T18:52:09.844Z,24.50
2022-08-30T18:54:51.766Z,24.40
2022-08-30T18:57:25.193Z,24.30
2022-08-30T18:59:57.283Z,24.30
2022-08-30T19:02:29.298Z,24.20
2022-08-30T19:05:01.857Z,24.10
2022-08-30T19:07:36.904Z,24.10
2022-08-30T19:10:13.076Z,24.00
2022-08-30T19:12:47.299Z,23.90
2022-08-30T19:15:20.095Z,23.90
2022-08-30T19:18:16.744Z,23.80
2022-08-30T19:20:50.697Z,23.70
2022-08-30T19:23:27.063Z,23.70
2022-08-30T19:26:00.510Z,23.60
2022-08-30T19:28:36.744Z,23.50
2022-08-30T19:31:10.032Z,23.50
2022-08-30T19:33:42.614Z,23.50
2022-08-30T19:36:14.696Z,23.40
2022-08-30T19:38:46.811Z,23.30
2022-08-30T19:41:19.853Z,23.30
2022-08-30T19:43:51.900Z,23.30
2022-08-30T19:46:24.115Z,23.20
2022-08-30T19:48:57.401Z,23.20
2022-08-30T19:51:31.936Z,23.10
2022-08-30T19:54:06.346Z,23.20
2022-08-30T19:56:39.983Z,23.20
2022-08-30T19:59:12.151Z,23.20
2022-08-30T20:01:45.840Z,23.20
2022-08-30T20:04:18.148Z,23.10
2022-08-30T20:06:50.284Z,23.20
2022-08-30T20:09:22.619Z,23.10
2022-08-30T20:11:58.708Z,23.20
2022-08-30T20:14:32.065Z,23.10
2022-08-30T20:17:04.284Z,23.10
2022-08-30T20:19:36.510Z,23.10
2022-08-30T20:22:08.988Z,23.00
2022-08-30T20:24:43.973Z,23.00
2022-08-30T20:27:16.191Z,23.00
2022-08-30T20:29:48.316Z,23.00
2022-08-30T20:32:20.540Z,22.90
2022-08-30T20:34:53.637Z,22.90
2022-08-30T20:37:27.372Z,22.90
2022-08-30T20:40:02.218Z,22.90
2022-08-30T20:42:35.599Z,22.80
2022-08-30T20:45:08.629Z,22.80
2022-08-30T20:47:42.968Z,22.70
2022-08-30T20:50:16.569Z,22.70
2022-08-30T20:52:49.795Z,22.60
2022-08-30T20:55:22.050Z,22.60
2022-08-30T20:57:54.077Z,22.50
2022-08-30T21:00:26.648Z,22.50
2022-08-30T21:02:59.266Z,22.50
2022-08-30T21:05:31.515Z,22.50
2022-08-30T21:08:10.009Z,22.40
2022-08-30T21:10:42.976Z,22.40
2022-08-30T21:13:15.296Z,22.30
2022-08-30T21:16:00.565Z,22.30
2022-08-30T21:18:38.130Z,22.20
2022-08-30T21:21:21.340Z,22.20
2022-08-30T21:23:58.738Z,22.10
2022-08-30T21:26:33.658Z,22.10
2022-08-30T21:29:09.914Z,22.10
2022-08-30T21:31:43.142Z,22.00
2022-08-30T21:34:17.361Z,22.00
2022-08-30T21:36:50.030Z,22.00
2022-08-30T21:39:26.313Z,22.00
2022-08-30T21:41:59.486Z,22.00
2022-08-30T21:44:31.547Z,21.90
2022-08-30T21:47:03.987Z,21.90
2022-08-30T21:49:36.531Z,21.80
2022-08-30T21:52:08.729Z,21.80
2022-08-30T21:54:41.015Z,21.80
2022-08-30T21:57:13.702Z,21.80
2022-08-30T21:59:47.658Z,21.80
2022-08-30T22:02:20.099Z,21.70
2022-08-30T22:04:53.198Z,21.70
2022-08-30T22:07:25.430Z,21.70
2022-08-30T22:09:58.776Z,21.70
2022-08-30T22:12:30.879Z,21.70
2022-08-30T22:15:03.146Z,21.60
2022-08-30T22:17:36.159Z,21.60
2022-08-30T22:20:08.946Z,21.60
2022-08-30T22:22:41.473Z,21.50
2022-08-30T22:25:13.641Z,21.50
2022-08-30T22:27:45.959Z,21.50
2022-08-30T22:30:18.221Z,21.50
2022-08-30T22:32:50.503Z,21.50
2022-08-30T22:35:25.157Z,21.50
2022-08-30T22:37:57.145Z,21.40
2022-08-30T22:40:31.218Z,21.50
2022-08-30T22:43:03.568Z,21.40
2022-08-30T22:45:36.460Z,21.40
2022-08-30T22:48:08.617Z,21.40
2022-08-30T22:50:41.050Z,21.40
2022-08-30T22:53:13.165Z,21.40
2022-08-30T22:55:45.348Z,21.40
2022-08-30T22:58:19.012Z,21.40
2022-08-30T23:00:55.033Z,21.30
2022-08-30T23:03:27.668Z,21.30
2022-08-30T23:05:59.736Z,21.30
2022-08-30T23:08:32.343Z,21.30
2022-08-30T23:11:04.401Z,21.30
2022-08-30T23:13:37.248Z,21.30
2022-08-30T23:16:11.265Z,21.20
2022-08-30T23:18:45.175Z,21.30
2022-08-30T23:21:24.657Z,21.20
2022-08-30T23:24:18.007Z,21.20
2022-08-30T23:27:28.139Z,21.20
2022-08-30T23:30:38.470Z,21.20
2022-08-30T23:33:49.242Z,21.20
2022-08-30T23:36:59.560Z,21.20
2022-08-30T23:40:09.770Z,21.10
2022-08-30T23:43:20.008Z,21.10
2022-08-30T23:46:30.413Z,21.10
2022-08-30T23:49:41.019Z,21.10
2022-08-30T23:52:51.288Z,21.00
2022-08-30T23:56:01.444Z,21.00
2022-08-30T23:59:11.538Z,21.00
